Time;durP1;ratioP1;P1;durP2;ratioP2;P2;SDS_P1;SDS_P2;PMS_P1;PMS_P2;Temp;Humidity;BMP_temperature;BMP_pressure;BME280_temperature;BME280_humidity;BME280_pressure;Samples;Min_cycle;Max_cycle;Signal;HPM_P1;HPM_P2
2021/12/08 00:00:12;;;;;;;6.45;1.65;;;4.50;99.90;;;;;;4938962;28;20585;-58
2021/12/08 00:02:37;;;;;;;7.57;1.38;;;4.50;99.90;;;;;;4954990;28;20492;-59
2021/12/08 00:05:05;;;;;;;5.68;1.60;;;4.50;99.90;;;;;;4954515;28;20039;-57
2021/12/08 00:07:32;;;;;;;3.72;1.45;;;4.50;99.90;;;;;;4949542;28;20061;-60
2021/12/08 00:10:14;;;;;;;5.50;1.48;;;4.50;99.90;;;;;;4961393;28;20038;-60
2021/12/08 00:15:25;;;;;;;5.32;1.65;;;4.40;99.90;;;;;;4953121;28;20065;-60
2021/12/08 00:17:51;;;;;;;8.50;1.65;;;4.40;99.90;;;;;;4955308;28;20529;-61
2021/12/08 00:20:17;;;;;;;5.25;1.30;;;4.40;99.90;;;;;;4959267;28;20031;-59
2021/12/08 00:22:42;;;;;;;8.15;2.67;;;4.40;99.90;;;;;;4949612;28;20035;-61
2021/12/08 00:25:09;;;;;;;6.90;1.75;;;4.40;99.90;;;;;;4953044;28;20046;-60
2021/12/08 00:27:34;;;;;;;5.03;1.50;;;4.40;99.90;;;;;;4953406;28;20059;-58
2021/12/08 00:30:00;;;;;;;10.10;1.55;;;4.40;99.90;;;;;;4951658;28;20035;-59
2021/12/08 00:32:28;;;;;;;4.00;1.55;;;4.40;99.90;;;;;;4951803;28;20024;-58
2021/12/08 00:34:54;;;;;;;7.40;3.47;;;4.40;99.90;;;;;;4951527;28;20472;-59
2021/12/08 00:37:20;;;;;;;8.70;1.65;;;4.40;99.90;;;;;;4955820;28;20099;-56
2021/12/08 00:39:46;;;;;;;4.15;1.33;;;4.30;99.90;;;;;;4951300;29;20086;-59
2021/12/08 00:42:12;;;;;;;6.10;1.67;;;4.30;99.90;;;;;;4957988;28;20436;-58
2021/12/08 00:44:38;;;;;;;3.20;1.40;;;4.20;99.90;;;;;;4952405;28;20050;-58
2021/12/08 00:47:04;;;;;;;5.63;1.70;;;4.10;99.90;;;;;;4954387;28;20035;-56
2021/12/08 00:49:30;;;;;;;7.18;1.50;;;4.10;99.90;;;;;;4955138;28;20042;-58
2021/12/08 00:51:56;;;;;;;9.38;1.90;;;4.00;99.90;;;;;;4957619;28;20404;-58
2021/12/08 00:54:21;;;;;;;5.45;1.63;;;3.90;99.90;;;;;;4961975;28;20035;-58
2021/12/08 00:56:47;;;;;;;4.18;1.88;;;3.90;99.90;;;;;;4956012;28;20085;-57
2021/12/08 00:59:13;;;;;;;6.90;1.50;;;3.90;99.90;;;;;;4958691;28;20050;-58
2021/12/08 01:01:38;;;;;;;4.18;1.50;;;3.80;99.90;;;;;;4950022;28;20047;-57
2021/12/08 01:04:05;;;;;;;4.78;1.95;;;3.80;99.90;;;;;;4947498;28;20106;-59
2021/12/08 01:06:31;;;;;;;7.70;1.38;;;3.80;99.90;;;;;;4950205;28;20404;-59
2021/12/08 01:08:56;;;;;;;7.88;1.60;;;3.80;99.90;;;;;;4955224;28;20117;-58
2021/12/08 01:11:22;;;;;;;7.85;1.58;;;3.80;99.90;;;;;;4951135;28;20474;-59
2021/12/08 01:13:48;;;;;;;5.82;1.58;;;3.80;99.90;;;;;;4951216;28;20041;-59
2021/12/08 01:16:16;;;;;;;5.57;1.77;;;3.80;99.90;;;;;;4951590;28;20420;-59
2021/12/08 01:18:41;;;;;;;5.90;1.73;;;3.80;99.90;;;;;;4949714;28;20404;-58
2021/12/08 01:21:09;;;;;;;6.70;2.10;;;3.80;99.90;;;;;;4958008;28;20480;-57
2021/12/08 01:23:36;;;;;;;5.50;1.70;;;3.80;99.90;;;;;;4950598;28;20047;-59
2021/12/08 01:26:04;;;;;;;7.30;1.58;;;3.80;99.90;;;;;;4958813;28;20498;-59
2021/12/08 01:28:30;;;;;;;3.78;2.08;;;3.90;99.90;;;;;;4954952;28;20122;-57
2021/12/08 01:30:56;;;;;;;7.45;1.83;;;3.90;99.90;;;;;;4957587;28;20118;-56
2021/12/08 01:33:24;;;;;;;9.25;1.92;;;3.90;99.90;;;;;;4951451;28;20042;-59
2021/12/08 01:35:50;;;;;;;6.70;1.98;;;3.90;99.90;;;;;;4954410;28;20031;-60
2021/12/08 01:38:17;;;;;;;6.03;2.05;;;4.00;99.90;;;;;;4952639;28;20042;-58
2021/12/08 01:40:42;;;;;;;7.63;1.58;;;4.00;99.90;;;;;;4964710;28;20027;-59
2021/12/08 01:43:29;;;;;;;6.93;1.92;;;4.00;99.90;;;;;;4957139;28;20054;-59
2021/12/08 01:46:06;;;;;;;8.90;1.63;;;4.00;99.90;;;;;;4949006;28;20489;-59
2021/12/08 01:48:38;;;;;;;11.10;2.97;;;4.10;99.90;;;;;;4952692;28;20031;-59
2021/12/08 01:51:10;;;;;;;4.50;1.70;;;4.10;99.90;;;;;;4954958;28;20489;-59
2021/12/08 01:53:37;;;;;;;5.03;1.50;;;4.10;99.90;;;;;;4954872;28;20043;-59
2021/12/08 01:56:02;;;;;;;8.18;1.55;;;4.10;99.90;;;;;;4955154;29;20035;-58
2021/12/08 01:58:28;;;;;;;8.57;2.28;;;4.10;99.90;;;;;;4953922;29;20097;-59
2021/12/08 02:01:04;;;;;;;2.75;1.30;;;4.10;99.90;;;;;;4948341;29;20393;-59
2021/12/08 02:03:30;;;;;;;3.65;1.40;;;4.10;99.90;;;;;;4952460;28;20039;-58
2021/12/08 02:05:57;;;;;;;4.03;1.42;;;4.10;99.90;;;;;;4949331;29;20042;-60
2021/12/08 02:08:23;;;;;;;5.15;1.50;;;4.20;99.90;;;;;;4941496;28;20051;-59
2021/12/08 02:10:49;;;;;;;5.75;2.08;;;4.10;99.90;;;;;;4950792;29;20057;-59
2021/12/08 02:13:15;;;;;;;6.05;1.33;;;4.20;99.90;;;;;;4945306;28;20106;-59
2021/12/08 02:15:42;;;;;;;4.80;1.80;;;4.20;99.90;;;;;;4953704;29;20054;-59
2021/12/08 02:18:13;;;;;;;4.15;1.45;;;4.20;99.90;;;;;;4950365;28;20031;-60
2021/12/08 02:20:41;;;;;;;7.13;1.75;;;4.20;99.90;;;;;;4951634;28;20038;-59
2021/12/08 02:23:06;;;;;;;8.00;1.65;;;4.20;99.90;;;;;;4953812;28;20042;-60
2021/12/08 02:25:32;;;;;;;7.03;1.55;;;4.30;99.90;;;;;;4954725;28;20035;-59
2021/12/08 02:28:00;;;;;;;4.75;1.52;;;4.30;99.90;;;;;;4952680;28;20035;-58
2021/12/08 02:49:14;;;;;;;3.92;1.65;;;4.40;99.90;;;;;;4951399;29;20119;-57
2021/12/08 02:51:43;;;;;;;4.78;1.42;;;4.40;99.90;;;;;;4950560;28;20401;-59
2021/12/08 02:54:09;;;;;;;3.40;1.48;;;4.50;99.90;;;;;;4952539;29;20548;-56
2021/12/08 02:56:35;;;;;;;4.97;1.70;;;4.50;99.90;;;;;;4950372;28;20035;-60
2021/12/08 02:59:01;;;;;;;4.47;1.83;;;4.50;99.90;;;;;;4947413;28;20081;-59
2021/12/08 03:01:27;;;;;;;5.15;1.38;;;4.40;99.90;;;;;;4947480;29;20041;-58
2021/12/08 03:03:53;;;;;;;3.17;1.40;;;4.40;99.90;;;;;;4953111;29;20035;-59
2021/12/08 03:06:19;;;;;;;4.55;1.48;;;4.50;99.90;;;;;;4953886;29;20042;-59
2021/12/08 03:08:45;;;;;;;4.35;1.80;;;4.50;99.90;;;;;;4941247;28;20405;-60
2021/12/08 03:11:11;;;;;;;4.90;1.40;;;4.40;99.90;;;;;;4947841;28;20035;-59
2021/12/08 03:13:56;;;;;;;2.47;1.73;;;4.40;99.90;;;;;;4949937;29;20083;-58
2021/12/08 03:16:22;;;;;;;4.50;1.50;;;4.40;99.90;;;;;;4945509;29;20038;-59
2021/12/08 03:18:48;;;;;;;4.20;1.90;;;4.40;99.90;;;;;;4951260;28;20024;-59
2021/12/08 03:21:13;;;;;;;4.78;1.67;;;4.40;99.90;;;;;;4954937;28;20031;-59
2021/12/08 03:26:30;;;;;;;4.53;1.65;;;4.40;99.90;;;;;;4952933;29;20512;-59
2021/12/08 03:29:03;;;;;;;3.38;1.83;;;4.40;99.90;;;;;;4950822;28;20034;-59
2021/12/08 03:31:34;;;;;;;5.60;1.83;;;4.30;99.90;;;;;;4953060;28;20027;-60
2021/12/08 03:34:00;;;;;;;3.40;1.65;;;4.30;99.90;;;;;;4952920;28;20035;-59
2021/12/08 03:36:25;;;;;;;5.15;1.85;;;4.30;99.90;;;;;;4944243;28;20047;-60
2021/12/08 03:38:51;;;;;;;6.00;1.73;;;4.20;99.90;;;;;;4943811;29;20114;-60
2021/12/08 03:41:17;;;;;;;2.88;1.60;;;4.20;99.90;;;;;;4950888;28;20035;-59
2021/12/08 03:43:42;;;;;;;2.33;1.70;;;4.20;99.90;;;;;;4946289;29;20034;-60
2021/12/08 03:46:12;;;;;;;7.07;1.90;;;4.20;99.90;;;;;;4946935;29;20043;-59
2021/12/08 03:48:48;;;;;;;3.88;2.00;;;4.20;99.90;;;;;;4950251;28;20547;-60
2021/12/08 03:51:15;;;;;;;3.05;1.60;;;4.20;99.90;;;;;;4949046;28;20027;-60
2021/12/08 03:53:42;;;;;;;7.28;3.28;;;4.20;99.90;;;;;;4950120;28;20090;-58
2021/12/08 03:56:08;;;;;;;4.05;1.90;;;4.10;99.90;;;;;;4950190;28;20034;-59
2021/12/08 03:58:35;;;;;;;5.63;1.90;;;4.20;99.90;;;;;;4950992;28;20050;-60
2021/12/08 04:01:01;;;;;;;3.38;2.00;;;4.10;99.90;;;;;;4951976;29;20556;-59
2021/12/08 04:03:31;;;;;;;5.85;1.75;;;4.10;99.90;;;;;;4948493;28;20031;-58
2021/12/08 04:06:00;;;;;;;9.70;2.63;;;4.20;99.90;;;;;;4948692;29;20023;-60
2021/12/08 04:08:40;;;;;;;6.93;2.15;;;4.20;99.90;;;;;;4944570;29;20027;-59
2021/12/08 04:11:07;;;;;;;6.13;1.88;;;4.20;99.90;;;;;;4947569;28;20053;-58
2021/12/08 04:13:38;;;;;;;3.88;1.80;;;4.20;99.90;;;;;;4949996;29;20082;-60
2021/12/08 04:16:04;;;;;;;3.97;2.42;;;4.20;99.90;;;;;;4949642;28;20038;-60
2021/12/08 04:18:31;;;;;;;4.90;2.38;;;4.20;99.90;;;;;;4945607;28;20066;-59
2021/12/08 04:20:58;;;;;;;3.15;1.85;;;4.20;99.90;;;;;;4947452;29;20732;-60
2021/12/08 04:23:26;;;;;;;5.50;2.10;;;4.20;99.90;;;;;;4947683;28;20031;-61
2021/12/08 04:25:55;;;;;;;5.38;2.60;;;4.20;99.90;;;;;;4930226;28;20047;-60
2021/12/08 04:28:26;;;;;;;3.10;1.75;;;4.20;99.90;;;;;;4949592;28;20035;-60
2021/12/08 04:31:05;;;;;;;3.58;1.88;;;4.20;99.90;;;;;;4952059;29;20062;-59
2021/12/08 04:33:33;;;;;;;5.15;1.80;;;4.30;99.90;;;;;;4946293;29;20160;-59
2021/12/08 04:35:59;;;;;;;3.47;1.85;;;4.30;99.90;;;;;;4948640;28;20027;-60
2021/12/08 04:38:34;;;;;;;4.32;2.00;;;4.30;99.90;;;;;;4949139;28;20023;-61
2021/12/08 04:41:06;;;;;;;5.43;1.70;;;4.30;99.90;;;;;;4934939;29;20035;-60
2021/12/08 04:44:04;;;;;;;5.07;1.95;;;4.30;99.90;;;;;;4944242;29;20024;-60
2021/12/08 04:47:00;;;;;;;8.65;1.60;;;4.30;99.90;;;;;;4955946;28;20041;-60
2021/12/08 04:50:06;;;;;;;6.63;2.05;;;4.20;99.90;;;;;;4939688;29;20035;-60
2021/12/08 05:08:58;;;;;;;3.17;2.00;;;4.20;99.90;;;;;;4942608;28;20039;-59
2021/12/08 05:11:32;;;;;;;8.15;1.80;;;4.20;99.90;;;;;;4958876;28;20035;-59
2021/12/08 05:14:07;;;;;;;8.75;1.95;;;4.30;99.90;;;;;;4949180;29;20051;-59
2021/12/08 05:16:34;;;;;;;8.13;2.50;;;4.30;99.90;;;;;;4944222;28;20058;-59
2021/12/08 05:19:02;;;;;;;7.32;2.40;;;4.30;99.90;;;;;;4942098;29;20024;-59
2021/12/08 05:21:40;;;;;;;6.18;2.60;;;4.30;99.90;;;;;;4945529;29;20027;-60
2021/12/08 05:24:09;;;;;;;5.85;2.20;;;4.30;99.90;;;;;;4947596;29;20047;-60
2021/12/08 05:26:39;;;;;;;7.97;1.85;;;4.30;99.90;;;;;;4939889;28;20047;-60
2021/12/08 05:29:16;;;;;;;9.25;2.15;;;4.30;99.90;;;;;;4947660;29;20136;-60
2021/12/08 05:31:42;;;;;;;5.13;2.25;;;4.20;99.90;;;;;;4950043;28;20115;-57
2021/12/08 05:34:08;;;;;;;7.35;2.15;;;4.20;99.90;;;;;;4949916;28;20126;-58
2021/12/08 05:36:34;;;;;;;7.45;2.00;;;4.10;99.90;;;;;;4947750;28;20027;-60
2021/12/08 05:39:03;;;;;;;5.50;1.80;;;4.10;99.90;;;;;;4950103;29;20034;-60
2021/12/08 05:41:34;;;;;;;7.60;2.28;;;4.10;99.90;;;;;;4947292;29;20536;-58
2021/12/08 05:44:01;;;;;;;3.83;1.88;;;4.00;99.90;;;;;;4945636;29;20039;-60
2021/12/08 05:46:29;;;;;;;5.68;2.20;;;4.00;99.90;;;;;;4950151;29;20034;-59
2021/12/08 05:48:56;;;;;;;7.75;2.10;;;4.00;99.90;;;;;;4945782;29;20038;-58
2021/12/08 05:51:28;;;;;;;6.53;1.90;;;4.00;99.90;;;;;;4944460;29;20131;-60
2021/12/08 05:53:58;;;;;;;9.57;2.65;;;4.00;99.90;;;;;;4948963;28;20027;-55
2021/12/08 05:56:25;;;;;;;8.63;2.80;;;4.00;99.90;;;;;;4942757;28;20434;-59
2021/12/08 05:58:54;;;;;;;5.72;2.10;;;4.00;99.90;;;;;;4945598;28;20039;-59
2021/12/08 06:01:49;;;;;;;8.35;2.40;;;4.00;99.90;;;;;;4936816;29;20494;-59
2021/12/08 06:04:15;;;;;;;18.67;7.97;;;3.90;99.90;;;;;;4940175;29;20062;-60
2021/12/08 06:06:41;;;;;;;14.18;4.15;;;3.90;99.90;;;;;;4946936;29;20055;-60
2021/12/08 06:09:09;;;;;;;15.50;5.30;;;3.90;99.90;;;;;;4942542;29;20505;-59
2021/12/08 06:11:35;;;;;;;13.00;6.25;;;3.80;99.90;;;;;;4947791;28;20055;-60
2021/12/08 06:14:01;;;;;;;14.70;6.68;;;3.80;99.90;;;;;;4943321;29;20027;-60
2021/12/08 06:16:30;;;;;;;14.57;8.13;;;3.90;99.90;;;;;;4951429;28;20135;-59
2021/12/08 06:18:57;;;;;;;12.20;6.95;;;3.80;99.90;;;;;;4949343;28;20580;-59
2021/12/08 06:21:25;;;;;;;4.97;3.22;;;3.80;99.90;;;;;;4953694;28;20034;-59
2021/12/08 06:23:52;;;;;;;8.70;3.47;;;3.70;99.90;;;;;;4949579;28;20023;-59
2021/12/08 06:26:21;;;;;;;8.80;2.97;;;3.80;99.90;;;;;;4935542;28;20051;-58
2021/12/08 06:28:47;;;;;;;7.45;3.03;;;3.70;99.90;;;;;;4953087;28;20039;-60
2021/12/08 06:31:15;;;;;;;9.55;3.63;;;3.70;99.90;;;;;;4947597;28;20097;-60
2021/12/08 06:33:41;;;;;;;11.18;2.90;;;3.70;99.90;;;;;;4951618;28;20110;-59
2021/12/08 06:36:13;;;;;;;16.98;4.15;;;3.70;99.90;;;;;;4952672;28;20094;-59
2021/12/08 06:38:40;;;;;;;7.30;3.10;;;3.60;99.90;;;;;;4949505;28;20027;-58
2021/12/08 06:41:11;;;;;;;9.00;3.60;;;3.60;99.90;;;;;;4943212;28;20082;-60
2021/12/08 06:43:43;;;;;;;15.45;3.60;;;3.70;99.90;;;;;;4952412;28;20031;-59
2021/12/08 06:46:11;;;;;;;16.45;4.10;;;3.70;99.90;;;;;;4948681;28;20524;-60
2021/12/08 06:48:42;;;;;;;10.73;4.00;;;3.60;99.90;;;;;;4950251;28;20039;-60
2021/12/08 06:51:19;;;;;;;13.13;4.13;;;3.60;99.90;;;;;;4952660;28;20062;-60
2021/12/08 06:53:52;;;;;;;10.55;4.18;;;3.50;99.90;;;;;;4952150;28;20404;-60
2021/12/08 06:56:46;;;;;;;11.70;4.47;;;3.60;99.90;;;;;;4950789;28;20034;-59
2021/12/08 06:59:17;;;;;;;11.47;5.40;;;3.50;99.90;;;;;;4950761;29;20768;-58
2021/12/08 07:01:55;;;;;;;37.03;17.20;;;3.50;99.90;;;;;;4946958;29;20283;-60
2021/12/08 07:04:33;;;;;;;23.40;10.73;;;3.50;99.90;;;;;;4947741;28;20030;-59
2021/12/08 07:07:11;;;;;;;20.38;10.98;;;3.50;99.90;;;;;;4943573;29;20416;-60
2021/12/08 07:09:41;;;;;;;17.02;6.57;;;3.50;99.90;;;;;;4952241;28;20024;-60
2021/12/08 07:12:24;;;;;;;16.40;5.60;;;3.50;99.90;;;;;;4947920;29;20038;-59
2021/12/08 07:15:19;;;;;;;9.82;3.88;;;3.50;99.90;;;;;;4946878;28;20039;-60
2021/12/08 07:17:50;;;;;;;9.25;3.63;;;3.50;99.90;;;;;;4943826;28;20059;-59
2021/12/08 07:23:05;;;;;;;17.27;5.45;;;3.60;99.90;;;;;;4950048;28;20059;-60
2021/12/08 07:25:33;;;;;;;8.43;4.50;;;3.70;99.90;;;;;;4936608;28;20039;-60
2021/12/08 07:27:59;;;;;;;15.90;6.30;;;3.80;99.90;;;;;;4948434;29;20561;-59
2021/12/08 07:30:36;;;;;;;10.02;4.10;;;3.80;99.90;;;;;;4949646;28;20039;-58
2021/12/08 07:33:02;;;;;;;9.45;3.72;;;3.90;99.90;;;;;;4952241;28;20030;-60
2021/12/08 07:35:33;;;;;;;11.48;3.50;;;3.90;99.90;;;;;;4950332;28;20035;-60
2021/12/08 07:37:59;;;;;;;13.85;3.53;;;3.80;99.90;;;;;;4951866;28;20098;-59
2021/12/08 07:40:54;;;;;;;8.45;2.92;;;3.80;99.90;;;;;;4950173;29;20039;-60
2021/12/08 07:43:27;;;;;;;13.30;5.57;;;3.80;99.90;;;;;;4947383;29;21798;-61
2021/12/08 07:46:03;;;;;;;19.85;8.45;;;3.80;99.90;;;;;;4953264;28;20064;-60
2021/12/08 07:48:34;;;;;;;16.73;5.80;;;3.70;99.90;;;;;;4948222;29;20027;-60
2021/12/08 07:51:18;;;;;;;39.30;15.63;;;3.70;99.90;;;;;;4950802;28;20493;-59
2021/12/08 07:53:44;;;;;;;21.20;8.93;;;3.70;99.90;;;;;;4950525;29;20027;-60
2021/12/08 07:56:13;;;;;;;15.48;5.85;;;3.70;99.90;;;;;;4950353;29;20039;-60
2021/12/08 07:58:42;;;;;;;21.23;7.97;;;3.70;99.90;;;;;;4951264;28;20023;-59
2021/12/08 08:01:16;;;;;;;10.73;3.50;;;3.70;99.90;;;;;;4952633;28;20587;-59
2021/12/08 08:03:42;;;;;;;9.57;3.42;;;3.80;99.90;;;;;;4951679;29;20709;-58
2021/12/08 08:06:14;;;;;;;7.97;2.92;;;3.80;99.90;;;;;;4949674;29;20391;-60
2021/12/08 08:08:40;;;;;;;17.15;4.90;;;3.80;99.90;;;;;;4952320;29;20050;-60
2021/12/08 08:11:18;;;;;;;12.93;4.20;;;3.80;99.90;;;;;;4950279;28;20526;-59
2021/12/08 08:13:44;;;;;;;17.02;4.55;;;3.80;99.90;;;;;;4947793;29;20035;-60
2021/12/08 08:16:14;;;;;;;25.13;9.30;;;3.80;99.90;;;;;;4951215;29;20038;-59
2021/12/08 08:18:45;;;;;;;12.13;6.75;;;3.90;99.90;;;;;;4949253;28;20035;-60
2021/12/08 08:21:17;;;;;;;10.13;4.53;;;3.90;99.90;;;;;;4950444;28;20439;-59
2021/12/08 08:23:43;;;;;;;10.07;3.67;;;3.90;99.90;;;;;;4944139;29;20023;-60
2021/12/08 08:26:10;;;;;;;12.82;4.15;;;3.90;99.90;;;;;;4935060;28;20047;-59
2021/12/08 08:28:38;;;;;;;9.60;4.00;;;4.00;99.90;;;;;;4950063;28;20409;-60
2021/12/08 08:31:12;;;;;;;11.98;4.97;;;4.00;99.90;;;;;;4950396;28;20031;-59
2021/12/08 08:33:39;;;;;;;12.82;4.75;;;4.00;99.90;;;;;;4945279;28;20043;-60
2021/12/08 08:36:19;;;;;;;18.25;6.63;;;4.00;99.90;;;;;;4951212;29;20562;-59
2021/12/08 08:39:05;;;;;;;11.98;4.97;;;4.10;99.90;;;;;;4942973;29;20032;-59
2021/12/08 08:41:44;;;;;;;20.73;6.03;;;4.10;99.90;;;;;;4947960;29;20024;-59
2021/12/08 08:44:25;;;;;;;12.73;4.80;;;4.20;99.90;;;;;;4948090;28;20031;-59
2021/12/08 08:46:52;;;;;;;10.60;3.83;;;4.20;99.90;;;;;;4942921;29;20499;-59
2021/12/08 08:49:26;;;;;;;12.10;4.55;;;4.30;99.90;;;;;;4951220;29;20126;-58
2021/12/08 08:52:00;;;;;;;11.40;4.15;;;4.30;99.90;;;;;;4950287;28;20055;-59
2021/12/08 08:54:32;;;;;;;11.73;4.25;;;4.40;99.90;;;;;;4950135;29;20039;-59
2021/12/08 08:57:15;;;;;;;6.88;2.85;;;4.50;99.90;;;;;;4947331;28;20146;-60
2021/12/08 08:59:47;;;;;;;7.35;2.22;;;4.60;99.90;;;;;;4948931;28;20023;-58
2021/12/08 09:02:28;;;;;;;8.48;2.40;;;4.60;99.90;;;;;;4949469;28;20026;-58
2021/12/08 09:05:00;;;;;;;6.68;2.63;;;4.70;99.90;;;;;;4950121;28;20027;-60
2021/12/08 09:07:36;;;;;;;4.90;2.00;;;4.70;99.90;;;;;;4949951;28;20035;-59
2021/12/08 09:10:08;;;;;;;4.95;2.00;;;4.70;99.90;;;;;;4950441;28;20405;-60
2021/12/08 09:12:43;;;;;;;5.85;1.95;;;4.80;99.90;;;;;;4949993;28;20031;-60
2021/12/08 09:15:15;;;;;;;7.93;2.45;;;4.80;99.90;;;;;;4948373;28;20031;-58
2021/12/08 09:17:56;;;;;;;8.10;2.03;;;4.90;99.90;;;;;;4949712;29;20015;-58
2021/12/08 09:20:28;;;;;;;12.45;1.95;;;4.90;99.90;;;;;;4951507;28;20454;-60
2021/12/08 09:23:08;;;;;;;10.30;2.65;;;4.90;99.90;;;;;;4947596;28;20019;-59
2021/12/08 09:25:48;;;;;;;9.10;2.97;;;4.90;99.90;;;;;;4946660;29;20556;-59
2021/12/08 09:28:21;;;;;;;9.07;3.28;;;5.00;99.90;;;;;;4933450;28;20138;-59
2021/12/08 09:31:12;;;;;;;14.18;2.65;;;5.00;99.90;;;;;;4949988;28;20489;-60
2021/12/08 09:34:00;;;;;;;12.27;3.72;;;5.00;99.90;;;;;;4950107;28;20043;-59
2021/12/08 09:36:46;;;;;;;12.55;4.05;;;5.10;99.90;;;;;;4950223;28;20040;-59
2021/12/08 09:39:20;;;;;;;17.25;7.88;;;5.10;99.90;;;;;;4949629;29;20394;-61
2021/12/08 09:42:15;;;;;;;11.00;2.90;;;5.10;99.90;;;;;;4950988;28;20060;-59
2021/12/08 09:44:46;;;;;;;12.52;3.85;;;5.20;99.90;;;;;;4948360;29;20027;-59
2021/12/08 09:47:12;;;;;;;11.02;2.70;;;5.30;99.90;;;;;;4950465;29;20106;-60
2021/12/08 09:49:39;;;;;;;10.23;3.63;;;5.30;99.90;;;;;;4948147;29;20615;-58
2021/12/08 09:52:08;;;;;;;15.25;5.35;;;5.40;99.90;;;;;;4947236;29;20032;-60
2021/12/08 09:54:34;;;;;;;26.05;6.78;;;5.40;99.90;;;;;;4949504;28;20512;-58
2021/12/08 09:57:02;;;;;;;13.98;3.70;;;5.50;99.90;;;;;;4952993;28;20148;-59
2021/12/08 09:59:27;;;;;;;21.83;6.95;;;5.60;99.90;;;;;;4951814;28;20081;-59
2021/12/08 10:01:56;;;;;;;11.27;3.65;;;5.60;99.90;;;;;;4953930;28;20032;-59
2021/12/08 10:04:21;;;;;;;13.52;4.65;;;5.70;99.90;;;;;;4950153;29;20031;-58
2021/12/08 10:06:50;;;;;;;20.52;3.25;;;5.70;99.90;;;;;;4953931;28;20544;-60
2021/12/08 10:09:19;;;;;;;11.93;4.43;;;5.70;99.90;;;;;;4953443;28;20058;-59
2021/12/08 10:11:46;;;;;;;11.35;4.40;;;5.70;99.90;;;;;;4945484;28;20118;-60
2021/12/08 10:14:13;;;;;;;13.52;3.30;;;5.70;99.90;;;;;;4953316;28;20452;-58
2021/12/08 10:16:39;;;;;;;9.32;3.05;;;5.70;99.90;;;;;;4951999;28;20456;-60
2021/12/08 10:19:05;;;;;;;13.55;3.33;;;5.70;99.90;;;;;;4951053;28;20093;-60
2021/12/08 10:21:40;;;;;;;9.65;3.60;;;5.70;99.90;;;;;;4954119;28;20031;-60
2021/12/08 10:24:14;;;;;;;19.33;3.65;;;5.70;99.90;;;;;;4950619;28;20019;-60
2021/12/08 10:26:40;;;;;;;11.07;2.97;;;5.80;99.90;;;;;;4948490;28;20039;-60
2021/12/08 10:29:06;;;;;;;12.10;2.45;;;5.80;99.90;;;;;;4932224;28;20043;-60
2021/12/08 10:31:39;;;;;;;8.38;2.47;;;5.70;99.90;;;;;;4953637;28;20036;-59
2021/12/08 10:36:49;;;;;;;15.57;3.42;;;5.80;99.90;;;;;;4951360;28;20031;-60
2021/12/08 10:39:14;;;;;;;5.13;2.40;;;5.80;99.90;;;;;;4952302;28;20504;-60
2021/12/08 10:42:00;;;;;;;11.52;2.88;;;5.90;99.90;;;;;;4951233;28;20110;-61
2021/12/08 10:44:49;;;;;;;16.90;4.47;;;5.90;99.90;;;;;;4942739;28;20038;-61
2021/12/08 10:47:22;;;;;;;17.02;3.25;;;6.00;99.90;;;;;;4953280;29;20027;-60
2021/12/08 10:55:03;;;;;;;10.25;4.32;;;6.00;99.90;;;;;;4951828;29;20572;-61
2021/12/08 10:57:35;;;;;;;11.88;3.92;;;6.00;99.90;;;;;;4951636;28;20043;-61
2021/12/08 11:00:06;;;;;;;12.98;5.28;;;6.10;99.90;;;;;;4951711;28;20031;-61
2021/12/08 11:02:56;;;;;;;15.57;4.68;;;6.10;99.90;;;;;;4951627;28;20027;-60
2021/12/08 11:05:24;;;;;;;10.10;2.60;;;6.20;99.90;;;;;;4942161;28;20047;-61
2021/12/08 11:08:05;;;;;;;16.15;4.13;;;6.20;99.90;;;;;;4945404;28;20107;-60
2021/12/08 11:10:34;;;;;;;8.68;2.60;;;6.20;99.90;;;;;;4950864;28;20035;-61
2021/12/08 11:13:00;;;;;;;8.25;2.72;;;6.30;99.90;;;;;;4948299;28;20042;-61
2021/12/08 11:15:28;;;;;;;15.20;2.03;;;6.40;99.90;;;;;;4951185;28;20551;-59
2021/12/08 11:18:12;;;;;;;9.18;3.50;;;6.30;99.90;;;;;;4948845;28;20034;-61
2021/12/08 11:20:44;;;;;;;11.95;2.97;;;6.30;99.90;;;;;;4951721;28;20027;-60
2021/12/08 11:23:15;;;;;;;8.80;2.30;;;6.30;99.90;;;;;;4948929;29;20106;-59
2021/12/08 11:25:45;;;;;;;11.32;2.30;;;6.30;99.90;;;;;;4950432;28;20035;-61
2021/12/08 11:28:24;;;;;;;9.95;2.33;;;6.40;99.90;;;;;;4951609;28;20513;-60
2021/12/08 11:30:52;;;;;;;13.73;2.38;;;6.40;99.90;;;;;;4953659;28;20035;-59
2021/12/08 11:33:22;;;;;;;9.18;2.42;;;6.50;99.90;;;;;;4935172;28;20158;-61
2021/12/08 11:35:49;;;;;;;19.35;5.45;;;6.50;99.90;;;;;;4952833;28;20497;-60
2021/12/08 11:38:25;;;;;;;29.67;10.02;;;6.50;99.90;;;;;;4946582;29;20096;-60
2021/12/08 11:40:50;;;;;;;16.15;5.35;;;6.60;99.90;;;;;;4951984;28;20027;-60
2021/12/08 11:43:16;;;;;;;19.20;6.03;;;6.60;99.90;;;;;;4944511;29;20398;-59
2021/12/08 11:45:43;;;;;;;12.27;3.08;;;6.70;99.90;;;;;;4953500;28;20036;-60
2021/12/08 11:48:22;;;;;;;9.48;2.58;;;6.80;99.90;;;;;;4952487;28;20067;-56
2021/12/08 11:50:48;;;;;;;7.78;2.42;;;6.70;99.90;;;;;;4960609;28;20489;-60
2021/12/08 11:53:21;;;;;;;7.35;2.40;;;6.80;99.90;;;;;;4960183;28;20046;-60
2021/12/08 11:55:46;;;;;;;13.32;3.35;;;6.80;99.90;;;;;;4952307;29;20520;-60
2021/12/08 11:58:12;;;;;;;9.35;2.80;;;6.90;99.90;;;;;;4952357;29;20031;-60
2021/12/08 12:00:40;;;;;;;8.18;1.80;;;6.90;99.90;;;;;;4951683;29;20508;-61
2021/12/08 12:03:09;;;;;;;11.38;4.30;;;6.80;99.90;;;;;;4954171;28;20027;-60
2021/12/08 12:05:36;;;;;;;13.30;3.53;;;6.80;99.90;;;;;;4958910;28;20046;-60
2021/12/08 12:08:03;;;;;;;19.30;5.90;;;6.80;99.90;;;;;;4956134;28;20355;-61
2021/12/08 12:10:33;;;;;;;10.38;3.75;;;6.70;99.90;;;;;;4952272;28;20121;-60
2021/12/08 12:13:00;;;;;;;11.90;2.33;;;6.70;99.90;;;;;;4954783;28;20042;-60
2021/12/08 12:15:26;;;;;;;11.20;2.25;;;6.70;99.90;;;;;;4947882;28;20808;-60
2021/12/08 12:17:52;;;;;;;8.63;2.50;;;6.70;99.90;;;;;;4945399;28;20110;-60
2021/12/08 12:20:38;;;;;;;12.25;2.10;;;6.70;99.90;;;;;;4947949;29;20031;-60
2021/12/08 12:23:42;;;;;;;7.45;2.50;;;6.70;99.90;;;;;;4950642;28;20044;-61
2021/12/08 12:26:11;;;;;;;14.05;2.88;;;6.80;99.90;;;;;;4934841;29;20039;-61
2021/12/08 12:28:42;;;;;;;9.82;2.95;;;6.80;99.90;;;;;;4945438;29;20039;-60
2021/12/08 12:31:10;;;;;;;9.48;3.70;;;6.70;99.90;;;;;;4952555;29;20047;-61
2021/12/08 12:33:42;;;;;;;9.98;3.00;;;6.80;99.90;;;;;;4935810;28;20050;-61
2021/12/08 12:36:27;;;;;;;13.93;2.88;;;6.80;99.90;;;;;;4951212;28;20035;-61
2021/12/08 12:39:18;;;;;;;15.77;3.42;;;6.90;99.90;;;;;;4951721;28;20508;-60
2021/12/08 12:41:57;;;;;;;13.43;3.58;;;6.90;99.90;;;;;;4948744;28;20489;-59
2021/12/08 12:44:27;;;;;;;15.52;3.70;;;6.90;99.90;;;;;;4953183;28;20114;-61
2021/12/08 12:47:05;;;;;;;15.52;3.33;;;6.90;99.90;;;;;;4958038;28;20026;-61
2021/12/08 12:49:33;;;;;;;22.50;8.80;;;6.90;99.90;;;;;;4951193;29;20408;-60
2021/12/08 12:52:00;;;;;;;13.70;5.15;;;6.80;99.90;;;;;;4952138;28;20181;-60
2021/12/08 12:54:26;;;;;;;15.43;5.82;;;6.80;99.90;;;;;;4953867;28;20027;-60
2021/12/08 12:56:55;;;;;;;14.77;7.07;;;6.80;99.90;;;;;;4962217;28;20478;-60
2021/12/08 12:59:23;;;;;;;15.90;3.78;;;6.80;99.90;;;;;;4950946;29;20027;-60
2021/12/08 13:02:05;;;;;;;10.52;2.55;;;6.80;99.90;;;;;;4936415;28;20054;-58
2021/12/08 13:04:34;;;;;;;18.65;5.63;;;6.80;99.90;;;;;;4942071;29;20020;-58
2021/12/08 13:07:07;;;;;;;21.58;9.15;;;6.70;99.90;;;;;;4944318;29;20504;-60
2021/12/08 13:09:35;;;;;;;11.15;2.85;;;6.70;99.90;;;;;;4950232;29;20027;-61
2021/12/08 13:12:12;;;;;;;12.73;2.15;;;6.70;99.90;;;;;;4949974;28;20102;-61
2021/12/08 13:14:39;;;;;;;7.88;3.30;;;6.70;99.90;;;;;;4941407;28;20454;-60
2021/12/08 13:17:20;;;;;;;10.05;2.83;;;6.70;99.90;;;;;;4950140;29;20442;-60
2021/12/08 13:19:57;;;;;;;9.20;2.55;;;6.70;99.90;;;;;;4941282;28;20090;-60
2021/12/08 13:22:52;;;;;;;15.38;4.82;;;6.70;99.90;;;;;;4949697;29;21552;-60
2021/12/08 13:28:24;;;;;;;19.38;6.75;;;6.60;99.90;;;;;;4939223;29;20042;-61
2021/12/08 13:31:06;;;;;;;18.90;7.85;;;6.60;99.90;;;;;;4954535;28;20089;-61
2021/12/08 13:33:36;;;;;;;9.15;3.38;;;6.50;99.90;;;;;;4932667;28;20055;-60
2021/12/08 13:36:22;;;;;;;9.13;3.22;;;6.50;99.90;;;;;;4938033;29;20091;-60
2021/12/08 13:38:54;;;;;;;12.27;3.38;;;6.40;99.90;;;;;;4947273;29;20031;-60
2021/12/08 13:41:21;;;;;;;12.68;3.70;;;6.30;99.90;;;;;;4955695;28;20028;-61
2021/12/08 13:43:51;;;;;;;17.63;6.07;;;6.30;99.90;;;;;;4954542;28;20058;-60
2021/12/08 13:46:45;;;;;;;11.27;4.75;;;6.30;99.90;;;;;;4954449;28;20509;-56
2021/12/08 13:49:27;;;;;;;14.60;5.18;;;6.30;99.90;;;;;;4949177;29;20118;-60
2021/12/08 13:52:07;;;;;;;24.58;6.13;;;6.20;99.90;;;;;;4936227;29;20059;-61
2021/12/08 13:54:40;;;;;;;14.68;4.90;;;6.20;99.90;;;;;;4940868;29;20036;-60
2021/12/08 13:57:32;;;;;;;15.20;4.07;;;6.20;99.90;;;;;;4946562;28;20031;-60
2021/12/08 14:00:08;;;;;;;30.55;3.55;;;6.10;99.90;;;;;;4933326;29;20035;-61
2021/12/08 14:02:37;;;;;;;10.85;3.75;;;6.10;99.90;;;;;;4943656;29;20119;-60
2021/12/08 14:05:02;;;;;;;14.65;2.78;;;6.00;99.90;;;;;;4954888;29;20031;-61
2021/12/08 14:07:28;;;;;;;11.75;3.63;;;6.00;99.90;;;;;;4949761;28;20083;-60